Terminal Aerodrome Forecast
Issued by NWS

Home | Current Version | Previous Version | Text Only | Print | Product List | Glossary On
Versions: 1 2 3 4 5 6 7 8 9 10 11 12 13 14 15 16 17 18 19 20 21 22 23 24 25 26 27 28 29 30
000
FTUS45 KCYS 101822 AAA
TAFRWL
TAF AMD
KRWL 101822Z 1018/1118 25022G35KT P6SM BKN035
      TEMPO 1018/1020 BKN025
     FM102000 25020G30KT P6SM BKN050 BKN100
     FM110200 24014KT P6SM SCT100 BKN200=

USA.gov is the U.S. government's official web portal to all federal, state and local government web resources and services.